Terminal Aerodrome Forecast
Issued by NWS

Home | Current Version | Previous Version | Text Only | Print | Product List | Glossary On
Versions: 1 2 3 4 5 6 7 8 9 10 11 12 13 14
743
FTUS44 KTSA 302320
TAFRVS
TAF
KRVS 302320Z 3100/3124 16004KT P6SM SCT250
      TEMPO 3109/3113 5SM BR
     FM311400 17006KT P6SM FEW110 BKN250
     FM311900 18008KT P6SM FEW050 SCT250=

USA.gov is the U.S. government's official web portal to all federal, state and local government web resources and services.